Terminal Aerodrome Forecast
Issued by NWS Jackson, KY

Home | Current Version | Previous Version | Text Only | Print | Product List | Glossary On
Versions: 1 2 3 4 5 6 7 8 9 10 11 12 13 14 15 16 17 18 19
000
FTUS43 KJKL 051730
TAFJKL
TAF
KJKL 051730Z 0518/0618 32005KT P6SM VCSH BKN035 OVC045
     FM052300 31006KT 5SM -SHRA OVC030
     FM060100 VRB03KT P6SM VCSH OVC035
     FM061400 33005KT P6SM OVC045=

USA.gov is the U.S. government's official web portal to all federal, state and local government web resources and services.